Time;durP1;ratioP1;P1;durP2;ratioP2;P2;SDS_P1;SDS_P2;PMS_P1;PMS_P2;Temp;Humidity;BMP_temperature;BMP_pressure;BME280_temperature;BME280_humidity;BME280_pressure;Samples;Min_cycle;Max_cycle;Signal;HPM_P1;HPM_P2
2022/10/31 00:00:51;;;;;;;22.02;3.58;;;;;;;;;;5071910;28;20063;-73
2022/10/31 00:03:18;;;;;;;23.92;3.45;;;;;;;;;;5072391;28;20059;-73
2022/10/31 00:05:48;;;;;;;19.27;3.03;;;;;;;;;;5071780;28;20055;-73
2022/10/31 00:08:15;;;;;;;14.63;2.92;;;;;;;;;;5071890;28;20048;-72
2022/10/31 00:10:42;;;;;;;16.48;2.42;;;;;;;;;;5071669;28;20136;-72
2022/10/31 00:13:09;;;;;;;18.17;2.87;;;;;;;;;;5071650;28;20048;-72
2022/10/31 00:15:36;;;;;;;17.00;2.78;;;;;;;;;;5071900;28;20277;-72
2022/10/31 00:18:03;;;;;;;15.30;3.00;;;;;;;;;;5071734;28;20052;-73
2022/10/31 00:20:30;;;;;;;12.68;2.70;;;;;;;;;;5071680;28;20057;-73
2022/10/31 00:23:00;;;;;;;13.37;2.23;;;;;;;;;;5072057;28;20055;-73
2022/10/31 00:25:27;;;;;;;11.88;2.20;;;;;;;;;;5072262;28;20135;-73
2022/10/31 00:27:54;;;;;;;16.73;2.42;;;;;;;;;;5071759;28;20403;-73
2022/10/31 00:30:20;;;;;;;15.30;2.55;;;;;;;;;;5071768;28;20044;-73
2022/10/31 00:32:47;;;;;;;18.50;2.83;;;;;;;;;;5071451;28;20041;-73
2022/10/31 00:35:13;;;;;;;14.07;2.60;;;;;;;;;;5070511;28;20040;-72
2022/10/31 00:37:39;;;;;;;18.55;2.67;;;;;;;;;;5071689;28;20043;-73
2022/10/31 00:40:06;;;;;;;17.33;2.40;;;;;;;;;;5071690;28;20064;-73
2022/10/31 00:42:32;;;;;;;17.05;2.28;;;;;;;;;;5071684;28;20040;-73
2022/10/31 00:44:59;;;;;;;14.95;2.55;;;;;;;;;;5071232;28;20054;-73
2022/10/31 00:47:25;;;;;;;16.52;2.35;;;;;;;;;;5071312;28;20047;-73
2022/10/31 00:49:51;;;;;;;18.10;2.85;;;;;;;;;;5071231;28;20041;-73
2022/10/31 00:52:18;;;;;;;18.13;3.03;;;;;;;;;;5071471;28;20044;-73
2022/10/31 00:54:44;;;;;;;13.82;2.10;;;;;;;;;;5071050;28;20136;-73
2022/10/31 00:57:10;;;;;;;16.05;2.50;;;;;;;;;;5071432;28;20059;-73
2022/10/31 00:59:37;;;;;;;14.95;2.17;;;;;;;;;;5071488;28;20050;-72
2022/10/31 01:02:03;;;;;;;21.10;3.13;;;;;;;;;;5071278;28;20055;-73
2022/10/31 01:04:30;;;;;;;13.55;2.30;;;;;;;;;;5071199;28;20052;-73
2022/10/31 01:06:56;;;;;;;16.98;3.10;;;;;;;;;;5071366;28;20048;-73
2022/10/31 01:09:22;;;;;;;16.20;2.60;;;;;;;;;;5074096;28;20048;-73
2022/10/31 01:11:49;;;;;;;17.98;2.72;;;;;;;;;;5075055;28;20385;-72
2022/10/31 01:14:15;;;;;;;16.08;2.20;;;;;;;;;;5075033;28;20049;-72
2022/10/31 01:16:42;;;;;;;20.65;3.10;;;;;;;;;;5074726;28;20506;-72
2022/10/31 01:19:08;;;;;;;16.70;2.80;;;;;;;;;;5074872;28;20049;-72
2022/10/31 01:21:34;;;;;;;12.48;2.35;;;;;;;;;;5074633;28;20048;-72
2022/10/31 01:24:02;;;;;;;13.13;2.15;;;;;;;;;;5074973;28;20056;-72
2022/10/31 01:26:30;;;;;;;12.90;2.88;;;;;;;;;;5074812;28;20058;-73
2022/10/31 01:28:57;;;;;;;17.70;2.38;;;;;;;;;;5074751;28;20068;-73
2022/10/31 01:31:25;;;;;;;16.23;2.58;;;;;;;;;;5074837;28;20054;-72
2022/10/31 01:33:52;;;;;;;14.80;2.08;;;;;;;;;;5074412;28;20059;-72
2022/10/31 01:36:22;;;;;;;17.20;2.45;;;;;;;;;;5074727;28;20076;-73
2022/10/31 01:38:49;;;;;;;15.77;2.78;;;;;;;;;;5074506;28;20049;-73
2022/10/31 01:41:24;;;;;;;13.90;2.50;;;;;;;;;;5073377;28;20052;-73
2022/10/31 01:43:53;;;;;;;14.68;2.25;;;;;;;;;;5074837;28;20052;-72
2022/10/31 01:46:22;;;;;;;15.32;2.10;;;;;;;;;;5074208;28;20067;-72
2022/10/31 01:48:49;;;;;;;16.92;2.50;;;;;;;;;;5074041;28;20472;-72
2022/10/31 01:51:17;;;;;;;16.05;2.47;;;;;;;;;;5074458;28;20044;-73
2022/10/31 01:53:44;;;;;;;15.45;2.55;;;;;;;;;;5074324;28;20053;-73
2022/10/31 01:56:11;;;;;;;18.60;3.03;;;;;;;;;;5074138;28;20045;-73
2022/10/31 01:58:37;;;;;;;21.33;2.63;;;;;;;;;;5074353;28;20291;-73
2022/10/31 02:01:04;;;;;;;14.85;2.42;;;;;;;;;;5046185;28;20281;-73
2022/10/31 02:03:33;;;;;;;13.60;2.17;;;;;;;;;;5074268;28;20095;-73
2022/10/31 02:06:00;;;;;;;14.10;2.33;;;;;;;;;;5074039;28;20049;-73
2022/10/31 02:08:27;;;;;;;17.65;2.97;;;;;;;;;;5073933;28;20044;-73
2022/10/31 02:10:54;;;;;;;21.90;2.67;;;;;;;;;;5073944;28;20506;-72
2022/10/31 02:13:20;;;;;;;13.93;2.60;;;;;;;;;;5074232;28;20395;-72
2022/10/31 02:15:48;;;;;;;13.75;2.78;;;;;;;;;;5073716;28;20052;-73
2022/10/31 02:18:15;;;;;;;18.42;2.95;;;;;;;;;;5073682;28;20058;-73
2022/10/31 02:20:44;;;;;;;12.30;1.95;;;;;;;;;;5073894;28;20048;-73
2022/10/31 02:23:13;;;;;;;17.88;2.33;;;;;;;;;;5073848;28;20413;-73
2022/10/31 02:25:43;;;;;;;12.07;2.10;;;;;;;;;;5072313;28;20045;-72
2022/10/31 02:28:09;;;;;;;18.70;3.20;;;;;;;;;;5073263;28;20054;-72
2022/10/31 02:30:38;;;;;;;14.35;2.58;;;;;;;;;;5073713;28;20055;-73
2022/10/31 02:33:15;;;;;;;13.60;2.05;;;;;;;;;;5073436;28;20608;-73
2022/10/31 02:35:53;;;;;;;15.55;2.38;;;;;;;;;;5073500;28;20055;-72
2022/10/31 02:38:42;;;;;;;16.98;2.88;;;;;;;;;;5073257;28;20044;-73
2022/10/31 02:41:08;;;;;;;15.25;2.53;;;;;;;;;;5073529;28;20044;-73
2022/10/31 02:43:35;;;;;;;11.80;2.70;;;;;;;;;;5073593;28;20044;-73
2022/10/31 02:46:01;;;;;;;11.18;2.08;;;;;;;;;;5073045;28;20057;-72
2022/10/31 02:48:28;;;;;;;14.52;2.42;;;;;;;;;;5073224;28;20048;-72
2022/10/31 02:50:56;;;;;;;16.15;2.72;;;;;;;;;;5073000;28;20048;-72
2022/10/31 02:53:23;;;;;;;15.73;2.42;;;;;;;;;;5073213;28;20048;-72
2022/10/31 02:56:01;;;;;;;18.08;3.15;;;;;;;;;;5073074;28;20044;-72
2022/10/31 02:58:31;;;;;;;17.50;2.50;;;;;;;;;;5073202;28;20049;-72
2022/10/31 03:01:00;;;;;;;17.13;2.25;;;;;;;;;;5073305;28;20052;-72
2022/10/31 03:03:34;;;;;;;14.20;2.40;;;;;;;;;;5071714;28;20056;-72
2022/10/31 03:06:04;;;;;;;19.02;3.03;;;;;;;;;;5072716;28;20055;-72
2022/10/31 03:08:50;;;;;;;16.52;2.67;;;;;;;;;;5072825;28;20053;-72
2022/10/31 03:11:17;;;;;;;23.25;3.25;;;;;;;;;;5044834;28;20458;-72
2022/10/31 03:13:49;;;;;;;15.98;3.00;;;;;;;;;;5072844;28;20048;-72
2022/10/31 03:16:29;;;;;;;15.77;2.90;;;;;;;;;;5072767;28;20048;-72
2022/10/31 03:18:59;;;;;;;11.15;2.13;;;;;;;;;;5072818;28;20062;-72
2022/10/31 03:21:27;;;;;;;14.68;2.38;;;;;;;;;;5072493;28;20059;-72
2022/10/31 03:23:54;;;;;;;12.50;2.20;;;;;;;;;;5072399;28;20488;-72
2022/10/31 03:26:21;;;;;;;16.92;2.88;;;;;;;;;;5072525;28;20053;-72
2022/10/31 03:28:52;;;;;;;16.50;2.70;;;;;;;;;;5072405;28;20048;-72
2022/10/31 03:31:23;;;;;;;18.02;2.88;;;;;;;;;;5071837;28;20053;-72
2022/10/31 03:33:50;;;;;;;12.10;2.13;;;;;;;;;;5072450;28;20049;-72
2022/10/31 03:36:17;;;;;;;;;;;;;;;;;;5072561;28;20048;-72
2022/10/31 03:38:45;;;;;;;23.65;3.08;;;;;;;;;;5072049;28;19934;-72
2022/10/31 03:41:14;;;;;;;19.55;2.67;;;;;;;;;;5072031;28;20056;-72
2022/10/31 03:43:42;;;;;;;14.75;2.65;;;;;;;;;;5071029;28;20048;-72
2022/10/31 03:46:09;;;;;;;14.75;2.17;;;;;;;;;;5070735;28;20052;-72
2022/10/31 03:48:35;;;;;;;12.70;2.22;;;;;;;;;;5071876;28;20044;-72
2022/10/31 03:51:06;;;;;;;16.35;2.92;;;;;;;;;;5072120;28;20045;-72
2022/10/31 03:53:34;;;;;;;20.25;3.03;;;;;;;;;;5071991;28;20045;-72
2022/10/31 03:56:04;;;;;;;14.90;3.22;;;;;;;;;;5072159;28;20067;-72
2022/10/31 03:58:34;;;;;;;17.08;2.42;;;;;;;;;;5072011;28;20074;-72
2022/10/31 04:01:01;;;;;;;21.23;3.25;;;;;;;;;;5071649;28;20595;-72
2022/10/31 04:03:32;;;;;;;15.77;3.08;;;;;;;;;;5072158;28;20049;-72
2022/10/31 04:06:02;;;;;;;15.13;2.42;;;;;;;;;;5071993;28;20040;-72
2022/10/31 04:08:30;;;;;;;15.63;2.65;;;;;;;;;;5071840;28;20055;-72
2022/10/31 04:10:57;;;;;;;17.25;2.95;;;;;;;;;;5071927;28;20416;-72
2022/10/31 04:13:27;;;;;;;13.30;2.80;;;;;;;;;;5071582;28;20048;-72
2022/10/31 04:15:54;;;;;;;12.57;2.00;;;;;;;;;;5071721;28;20047;-72
2022/10/31 04:18:22;;;;;;;15.02;2.25;;;;;;;;;;5071770;28;20048;-72
2022/10/31 04:20:49;;;;;;;15.40;2.28;;;;;;;;;;5071800;28;20048;-72
2022/10/31 04:23:20;;;;;;;12.40;2.40;;;;;;;;;;5071754;28;20056;-72
2022/10/31 04:25:46;;;;;;;16.75;2.40;;;;;;;;;;5071810;28;20397;-72
2022/10/31 04:28:13;;;;;;;12.48;2.78;;;;;;;;;;5071726;28;20048;-72
2022/10/31 04:30:39;;;;;;;20.25;2.75;;;;;;;;;;5071522;28;20476;-72
2022/10/31 04:33:06;;;;;;;13.73;2.58;;;;;;;;;;5071768;28;20052;-72
2022/10/31 04:35:32;;;;;;;16.60;2.47;;;;;;;;;;5071684;28;20051;-72
2022/10/31 04:37:58;;;;;;;11.63;2.40;;;;;;;;;;5071739;28;20055;-72
2022/10/31 04:40:25;;;;;;;13.57;2.15;;;;;;;;;;5070238;28;20048;-72
2022/10/31 04:42:51;;;;;;;14.35;2.70;;;;;;;;;;5072206;28;20048;-72
2022/10/31 04:45:17;;;;;;;15.80;2.30;;;;;;;;;;5068672;28;20060;-72
2022/10/31 04:47:46;;;;;;;13.52;2.38;;;;;;;;;;5075289;28;20153;-72
2022/10/31 04:50:13;;;;;;;17.60;2.67;;;;;;;;;;5075530;28;20048;-72
2022/10/31 04:52:40;;;;;;;14.43;2.42;;;;;;;;;;5075218;28;20404;-72
2022/10/31 04:55:06;;;;;;;18.50;3.03;;;;;;;;;;5075574;28;20048;-72
2022/10/31 04:57:39;;;;;;;13.88;2.45;;;;;;;;;;5075262;28;20041;-72
2022/10/31 05:00:06;;;;;;;17.13;2.53;;;;;;;;;;5075147;28;20515;-72
2022/10/31 05:02:32;;;;;;;10.40;2.30;;;;;;;;;;5074908;28;20049;-72
2022/10/31 05:04:59;;;;;;;18.63;2.40;;;;;;;;;;5075003;28;20063;-72
2022/10/31 05:07:25;;;;;;;12.05;2.30;;;;;;;;;;5075115;28;20052;-72
2022/10/31 05:09:51;;;;;;;15.55;2.55;;;;;;;;;;5075155;28;20045;-71
2022/10/31 05:12:18;;;;;;;14.15;2.67;;;;;;;;;;5074924;28;20051;-72
2022/10/31 05:14:44;;;;;;;12.20;2.85;;;;;;;;;;5075357;28;20041;-72
2022/10/31 05:17:14;;;;;;;13.20;2.30;;;;;;;;;;5075024;28;20145;-72
2022/10/31 05:19:40;;;;;;;12.07;2.10;;;;;;;;;;5075053;28;20432;-72
2022/10/31 05:22:06;;;;;;;13.65;3.03;;;;;;;;;;5074709;28;20504;-72
2022/10/31 05:24:33;;;;;;;11.48;2.45;;;;;;;;;;5074699;28;20546;-72
2022/10/31 05:26:59;;;;;;;22.20;3.28;;;;;;;;;;5074669;28;20062;-72
2022/10/31 05:29:25;;;;;;;11.48;2.45;;;;;;;;;;5074396;28;20052;-73
2022/10/31 05:31:52;;;;;;;15.73;2.58;;;;;;;;;;5073382;28;20484;-72
2022/10/31 05:34:18;;;;;;;17.50;2.20;;;;;;;;;;5075013;28;20040;-72
2022/10/31 05:36:44;;;;;;;8.85;2.25;;;;;;;;;;5073348;28;20045;-72
2022/10/31 05:39:11;;;;;;;14.48;2.47;;;;;;;;;;5074764;28;20045;-72
2022/10/31 05:41:37;;;;;;;13.60;2.80;;;;;;;;;;5074245;28;20052;-72
2022/10/31 05:44:04;;;;;;;15.48;2.70;;;;;;;;;;5074223;28;20511;-72
2022/10/31 05:46:30;;;;;;;20.67;3.17;;;;;;;;;;5074127;28;20511;-72
2022/10/31 05:48:56;;;;;;;16.25;2.45;;;;;;;;;;5073084;28;20522;-72
2022/10/31 05:51:27;;;;;;;18.23;2.72;;;;;;;;;;5074424;28;20044;-72
2022/10/31 05:53:54;;;;;;;13.65;2.60;;;;;;;;;;5073960;28;20049;-73
2022/10/31 05:56:20;;;;;;;12.82;2.33;;;;;;;;;;5074433;28;20051;-73
2022/10/31 05:58:46;;;;;;;12.18;2.70;;;;;;;;;;5074337;28;20048;-73
2022/10/31 06:01:13;;;;;;;14.93;3.30;;;;;;;;;;5074289;28;20074;-73
2022/10/31 06:03:39;;;;;;;12.38;2.33;;;;;;;;;;5074249;28;20049;-72
2022/10/31 06:06:06;;;;;;;12.05;2.20;;;;;;;;;;5073915;28;20397;-72
2022/10/31 06:08:32;;;;;;;10.45;2.28;;;;;;;;;;5074076;28;20091;-73
2022/10/31 06:10:58;;;;;;;11.57;2.60;;;;;;;;;;5072477;28;20132;-72
2022/10/31 06:13:25;;;;;;;16.50;2.45;;;;;;;;;;5074119;28;20048;-72
2022/10/31 06:15:51;;;;;;;17.45;2.90;;;;;;;;;;5073658;28;20049;-72
2022/10/31 06:18:17;;;;;;;14.82;2.63;;;;;;;;;;5073635;28;20508;-72
2022/10/31 06:20:44;;;;;;;15.63;2.50;;;;;;;;;;5073699;28;20063;-72
2022/10/31 06:23:10;;;;;;;15.98;2.58;;;;;;;;;;5073710;28;20048;-75
2022/10/31 06:25:37;;;;;;;12.07;2.58;;;;;;;;;;5073778;28;20052;-74
2022/10/31 06:28:03;;;;;;;15.38;2.70;;;;;;;;;;5073527;28;20140;-72
2022/10/31 06:30:30;;;;;;;12.77;2.97;;;;;;;;;;5073684;28;20052;-72
2022/10/31 06:33:03;;;;;;;12.50;3.30;;;;;;;;;;5073534;28;20051;-72
2022/10/31 06:35:30;;;;;;;17.20;3.38;;;;;;;;;;5073704;28;20054;-72
2022/10/31 06:37:56;;;;;;;11.77;2.63;;;;;;;;;;5072071;28;20047;-72
2022/10/31 06:40:23;;;;;;;15.15;3.25;;;;;;;;;;5073245;28;20500;-76
2022/10/31 06:42:56;;;;;;;18.55;3.10;;;;;;;;;;5073468;28;20048;-73
2022/10/31 06:45:23;;;;;;;13.98;2.80;;;;;;;;;;5073446;28;20064;-72
2022/10/31 06:47:53;;;;;;;18.70;3.15;;;;;;;;;;5073248;28;20052;-72
2022/10/31 06:50:39;;;;;;;16.38;3.25;;;;;;;;;;5072411;28;20040;-72
2022/10/31 06:53:06;;;;;;;18.23;2.65;;;;;;;;;;5072928;28;20051;-72
2022/10/31 06:55:32;;;;;;;13.02;2.88;;;;;;;;;;5072948;28;20048;-72
2022/10/31 06:57:59;;;;;;;14.70;3.00;;;;;;;;;;5073202;28;20048;-72
2022/10/31 07:00:29;;;;;;;13.73;2.33;;;;;;;;;;5073120;28;20055;-72
2022/10/31 07:03:00;;;;;;;19.02;3.25;;;;;;;;;;5057847;28;20127;-72
2022/10/31 07:05:27;;;;;;;10.55;2.42;;;;;;;;;;5070693;28;20106;-73
2022/10/31 07:07:57;;;;;;;17.45;2.83;;;;;;;;;;5072750;28;20521;-72
2022/10/31 07:10:25;;;;;;;16.48;2.45;;;;;;;;;;5052295;28;20045;-73
2022/10/31 07:12:55;;;;;;;14.85;3.05;;;;;;;;;;5061078;28;20045;-73
2022/10/31 07:15:23;;;;;;;16.70;2.92;;;;;;;;;;5057928;28;20044;-74
2022/10/31 07:17:49;;;;;;;16.88;3.45;;;;;;;;;;5056421;28;20518;-72
2022/10/31 07:20:16;;;;;;;15.50;2.75;;;;;;;;;;5052018;28;20057;-72
2022/10/31 07:22:42;;;;;;;19.85;3.05;;;;;;;;;;5050463;28;20412;-71
2022/10/31 07:25:14;;;;;;;14.63;2.78;;;;;;;;;;5051228;28;20515;-72
2022/10/31 07:27:42;;;;;;;13.48;2.78;;;;;;;;;;5053263;28;20053;-71
2022/10/31 07:30:10;;;;;;;19.63;3.00;;;;;;;;;;5068035;28;20047;-73
2022/10/31 07:32:40;;;;;;;13.23;2.53;;;;;;;;;;5062996;28;20041;-75
2022/10/31 07:35:08;;;;;;;10.52;2.53;;;;;;;;;;5052278;28;20055;-71
2022/10/31 07:37:34;;;;;;;21.25;3.00;;;;;;;;;;5051804;28;20512;-74
2022/10/31 07:40:01;;;;;;;16.38;2.53;;;;;;;;;;5050719;28;20052;-73
2022/10/31 07:42:27;;;;;;;12.88;2.35;;;;;;;;;;5051471;28;20071;-72
2022/10/31 07:44:54;;;;;;;14.70;2.67;;;;;;;;;;5064769;28;20056;-72
2022/10/31 07:47:23;;;;;;;14.57;2.35;;;;;;;;;;5072224;28;20048;-71
2022/10/31 07:49:49;;;;;;;13.30;2.92;;;;;;;;;;5055437;28;20054;-72
2022/10/31 07:52:15;;;;;;;19.83;3.50;;;;;;;;;;5065836;28;20048;-73
2022/10/31 07:54:42;;;;;;;19.65;2.70;;;;;;;;;;5066356;28;20045;-73
2022/10/31 07:57:08;;;;;;;15.20;2.80;;;;;;;;;;5063031;28;20048;-76
2022/10/31 07:59:34;;;;;;;14.25;3.45;;;;;;;;;;5071775;28;20480;-76
2022/10/31 08:02:01;;;;;;;14.27;2.58;;;;;;;;;;5070958;28;20071;-74
2022/10/31 08:04:27;;;;;;;13.35;2.30;;;;;;;;;;5071877;28;20048;-75
2022/10/31 08:06:53;;;;;;;13.23;2.30;;;;;;;;;;5065302;28;20068;-74
2022/10/31 08:09:20;;;;;;;13.82;2.72;;;;;;;;;;5051550;28;20044;-74
2022/10/31 08:11:46;;;;;;;19.65;2.28;;;;;;;;;;5051132;28;20048;-75
2022/10/31 08:14:12;;;;;;;11.88;2.22;;;;;;;;;;5051253;28;20392;-76
2022/10/31 08:16:39;;;;;;;14.32;2.10;;;;;;;;;;5060861;28;20040;-77
2022/10/31 08:19:05;;;;;;;11.30;2.47;;;;;;;;;;5059392;28;20051;-76
2022/10/31 08:21:32;;;;;;;10.48;2.28;;;;;;;;;;5071983;28;20048;-76
2022/10/31 08:23:59;;;;;;;14.40;2.30;;;;;;;;;;5055865;28;20063;-76
2022/10/31 08:26:25;;;;;;;10.45;2.20;;;;;;;;;;5057524;28;20058;-75
2022/10/31 08:28:54;;;;;;;9.93;2.42;;;;;;;;;;5068180;28;20496;-75
2022/10/31 08:31:21;;;;;;;14.57;2.33;;;;;;;;;;5051158;28;20052;-74
2022/10/31 08:33:47;;;;;;;9.82;2.28;;;;;;;;;;5050988;28;20412;-75
2022/10/31 08:36:13;;;;;;;16.65;2.60;;;;;;;;;;5062058;28;20484;-75
2022/10/31 08:38:40;;;;;;;10.57;2.03;;;;;;;;;;5061072;28;20045;-74
2022/10/31 08:41:06;;;;;;;10.20;1.75;;;;;;;;;;5050986;28;20377;-76
2022/10/31 08:43:32;;;;;;;16.13;2.50;;;;;;;;;;5067630;28;20048;-76
2022/10/31 08:45:59;;;;;;;11.10;2.00;;;;;;;;;;5069995;28;20063;-75
2022/10/31 08:48:25;;;;;;;12.55;2.10;;;;;;;;;;5071285;28;20500;-75
2022/10/31 08:50:55;;;;;;;10.45;1.95;;;;;;;;;;5071397;28;20045;-75
2022/10/31 08:53:22;;;;;;;12.70;2.35;;;;;;;;;;5070069;28;20050;-68
2022/10/31 08:55:48;;;;;;;13.82;2.05;;;;;;;;;;5066449;28;20055;-68
2022/10/31 08:58:16;;;;;;;14.38;2.28;;;;;;;;;;5054007;28;20157;-70
2022/10/31 09:00:43;;;;;;;15.00;2.50;;;;;;;;;;5054710;28;20048;-69
2022/10/31 09:03:11;;;;;;;13.40;2.33;;;;;;;;;;5050784;28;20080;-68
2022/10/31 09:05:37;;;;;;;;;;;;;;;;;;5051244;28;20068;-70
2022/10/31 09:08:04;;;;;;;11.02;2.40;;;;;;;;;;5049004;28;19932;-69
2022/10/31 09:10:31;;;;;;;13.63;2.22;;;;;;;;;;5050814;28;20041;-68
2022/10/31 09:12:59;;;;;;;10.63;2.08;;;;;;;;;;5050125;28;20052;-70
2022/10/31 09:15:25;;;;;;;11.32;1.75;;;;;;;;;;5036620;28;20055;-71
2022/10/31 09:17:52;;;;;;;8.80;1.83;;;;;;;;;;5050463;28;20045;-70
2022/10/31 09:20:18;;;;;;;9.40;2.17;;;;;;;;;;5050277;28;20296;-71
2022/10/31 09:22:45;;;;;;;12.20;1.95;;;;;;;;;;5050457;28;20101;-70
2022/10/31 09:25:11;;;;;;;13.82;2.35;;;;;;;;;;5050099;28;20053;-67
2022/10/31 09:27:38;;;;;;;14.82;1.73;;;;;;;;;;5050550;28;20059;-70
2022/10/31 09:30:04;;;;;;;11.35;1.80;;;;;;;;;;5052785;28;20049;-69
2022/10/31 09:32:31;;;;;;;13.02;2.42;;;;;;;;;;5053664;28;20488;-68
2022/10/31 09:34:57;;;;;;;11.68;1.48;;;;;;;;;;5052305;28;20547;-70
2022/10/31 09:37:23;;;;;;;11.75;1.75;;;;;;;;;;5053795;28;20524;-69
2022/10/31 09:39:50;;;;;;;9.13;1.77;;;;;;;;;;5054592;28;20381;-69
2022/10/31 09:42:35;;;;;;;10.43;1.77;;;;;;;;;;5053822;28;20503;-68
2022/10/31 09:45:06;;;;;;;13.13;2.30;;;;;;;;;;5054719;28;20044;-69
2022/10/31 09:47:41;;;;;;;11.02;1.90;;;;;;;;;;5058936;28;20522;-70
2022/10/31 09:50:17;;;;;;;11.38;2.17;;;;;;;;;;5073866;28;20052;-70
2022/10/31 09:52:49;;;;;;;10.57;1.70;;;;;;;;;;5074174;28;20052;-71
2022/10/31 09:55:26;;;;;;;8.85;1.80;;;;;;;;;;5070079;28;20080;-71
2022/10/31 09:57:53;;;;;;;14.30;1.83;;;;;;;;;;5073622;28;20045;-72
2022/10/31 10:00:21;;;;;;;10.82;1.67;;;;;;;;;;5068753;28;20056;-72
2022/10/31 10:02:50;;;;;;;10.38;1.50;;;;;;;;;;5063439;28;20059;-70
2022/10/31 10:05:38;;;;;;;9.57;1.80;;;;;;;;;;5065994;28;20055;-71
2022/10/31 10:08:18;;;;;;;9.23;1.67;;;;;;;;;;5051132;28;20041;-71
2022/10/31 10:11:02;;;;;;;9.75;1.80;;;;;;;;;;5052944;28;20045;-71
2022/10/31 10:13:36;;;;;;;11.25;1.80;;;;;;;;;;5061462;28;20048;-71
2022/10/31 10:16:11;;;;;;;9.00;1.52;;;;;;;;;;5073831;28;20048;-72
2022/10/31 10:19:01;;;;;;;11.57;1.88;;;;;;;;;;5069137;28;20056;-71
2022/10/31 10:21:28;;;;;;;7.65;1.90;;;;;;;;;;5048843;28;20053;-73
2022/10/31 10:23:55;;;;;;;8.25;1.50;;;;;;;;;;5062132;28;20058;-73
2022/10/31 10:26:23;;;;;;;7.88;1.50;;;;;;;;;;5073254;28;20427;-72
2022/10/31 10:29:02;;;;;;;5.82;1.50;;;;;;;;;;5073279;28;20052;-72
2022/10/31 10:31:30;;;;;;;8.18;1.52;;;;;;;;;;5072796;28;20056;-72
2022/10/31 10:34:16;;;;;;;8.20;1.55;;;;;;;;;;5073226;28;20064;-73
2022/10/31 10:36:50;;;;;;;10.30;1.70;;;;;;;;;;5073259;28;20420;-72
2022/10/31 10:39:20;;;;;;;7.68;1.40;;;;;;;;;;5072942;28;20044;-73
2022/10/31 10:43:18;;;;;;;5.45;1.35;;;;;;;;;;5067310;28;20084;-73
2022/10/31 10:47:42;;;;;;;10.80;1.70;;;;;;;;;;5072976;28;20040;-74
2022/10/31 10:50:19;;;;;;;7.18;1.55;;;;;;;;;;5072781;28;20202;-73
2022/10/31 10:52:50;;;;;;;8.40;2.17;;;;;;;;;;5071936;28;20055;-73
2022/10/31 10:55:19;;;;;;;6.75;1.52;;;;;;;;;;5066889;28;20049;-73
2022/10/31 10:57:46;;;;;;;5.68;1.27;;;;;;;;;;5072758;28;20041;-72
2022/10/31 11:00:23;;;;;;;6.70;1.42;;;;;;;;;;5071074;28;20052;-73
2022/10/31 11:02:50;;;;;;;8.27;1.85;;;;;;;;;;5072708;28;20056;-72
2022/10/31 11:05:46;;;;;;;8.73;1.73;;;;;;;;;;5072630;28;20407;-72
2022/10/31 11:08:23;;;;;;;9.32;1.67;;;;;;;;;;5061517;28;20048;-73
2022/10/31 11:11:03;;;;;;;7.72;1.42;;;;;;;;;;5072107;28;20060;-72
2022/10/31 11:13:30;;;;;;;7.00;1.48;;;;;;;;;;5070437;28;20049;-72
2022/10/31 11:16:01;;;;;;;7.22;1.05;;;;;;;;;;5059894;28;20510;-72
2022/10/31 11:18:29;;;;;;;4.97;0.80;;;;;;;;;;5064979;28;20049;-70
2022/10/31 11:20:57;;;;;;;4.63;1.30;;;;;;;;;;5059310;28;20049;-73
2022/10/31 11:23:25;;;;;;;5.43;0.85;;;;;;;;;;5072242;28;20059;-73
2022/10/31 11:25:55;;;;;;;8.23;1.15;;;;;;;;;;5072820;28;20063;-71
2022/10/31 11:28:22;;;;;;;4.43;1.10;;;;;;;;;;5071913;28;20058;-71
2022/10/31 11:30:56;;;;;;;7.57;1.40;;;;;;;;;;5071839;28;20050;-72
2022/10/31 11:33:22;;;;;;;5.70;1.10;;;;;;;;;;5072138;28;20400;-74
2022/10/31 11:35:49;;;;;;;3.97;1.00;;;;;;;;;;5064971;28;20143;-74
2022/10/31 11:38:23;;;;;;;4.57;1.00;;;;;;;;;;5056300;28;20044;-74
2022/10/31 11:41:13;;;;;;;6.13;1.05;;;;;;;;;;5051826;28;20417;-75
2022/10/31 11:43:45;;;;;;;5.00;1.00;;;;;;;;;;5045833;28;20492;-76
2022/10/31 11:46:15;;;;;;;6.10;0.98;;;;;;;;;;5065000;28;20063;-75
2022/10/31 11:48:46;;;;;;;7.25;1.00;;;;;;;;;;5064323;28;20051;-74
2022/10/31 11:51:12;;;;;;;7.20;1.33;;;;;;;;;;5069927;28;20055;-75
2022/10/31 11:53:50;;;;;;;4.40;0.90;;;;;;;;;;5056400;28;20419;-75
2022/10/31 11:56:16;;;;;;;3.90;1.00;;;;;;;;;;5069367;28;20048;-75
2022/10/31 11:58:43;;;;;;;3.70;1.08;;;;;;;;;;5057431;28;20472;-75
2022/10/31 12:01:25;;;;;;;6.43;1.20;;;;;;;;;;5071522;28;20056;-75
2022/10/31 12:04:08;;;;;;;4.60;0.80;;;;;;;;;;5071547;28;20440;-75
2022/10/31 12:06:38;;;;;;;4.25;0.68;;;;;;;;;;5071346;28;20510;-75
2022/10/31 12:09:20;;;;;;;7.82;1.10;;;;;;;;;;5069453;28;20040;-75
2022/10/31 12:12:13;;;;;;;7.35;0.90;;;;;;;;;;5062648;28;20059;-73
2022/10/31 12:14:49;;;;;;;4.28;1.13;;;;;;;;;;5034703;28;20408;-75
2022/10/31 12:17:24;;;;;;;4.72;1.10;;;;;;;;;;5050698;28;20044;-74
2022/10/31 12:19:59;;;;;;;3.70;0.85;;;;;;;;;;5052261;28;20049;-74
2022/10/31 12:22:44;;;;;;;2.47;0.88;;;;;;;;;;5049004;28;20514;-75
2022/10/31 12:25:17;;;;;;;5.78;0.90;;;;;;;;;;5064466;28;20433;-77
2022/10/31 12:27:43;;;;;;;3.28;1.02;;;;;;;;;;5063616;28;20060;-77
2022/10/31 12:30:12;;;;;;;3.70;0.67;;;;;;;;;;5069990;28;20045;-77
2022/10/31 12:32:42;;;;;;;4.38;0.93;;;;;;;;;;5055285;28;20051;-76
2022/10/31 12:35:15;;;;;;;3.47;0.65;;;;;;;;;;5069086;28;20052;-76
2022/10/31 12:37:58;;;;;;;2.72;0.70;;;;;;;;;;5070236;28;20044;-76
2022/10/31 12:40:25;;;;;;;3.03;1.10;;;;;;;;;;5070588;28;20131;-76
2022/10/31 12:42:54;;;;;;;2.67;0.75;;;;;;;;;;5070172;28;20416;-76
2022/10/31 12:45:46;;;;;;;4.32;0.90;;;;;;;;;;5070040;28;20379;-76
2022/10/31 12:48:22;;;;;;;1.45;0.60;;;;;;;;;;5070561;28;20048;-77
2022/10/31 12:50:54;;;;;;;2.38;0.73;;;;;;;;;;5071286;28;20512;-76
2022/10/31 12:53:30;;;;;;;2.10;0.65;;;;;;;;;;5071426;28;20044;-76
2022/10/31 12:55:59;;;;;;;2.78;0.68;;;;;;;;;;5071500;28;20047;-76
2022/10/31 12:58:37;;;;;;;2.20;0.57;;;;;;;;;;5070155;28;20053;-76
2022/10/31 13:01:14;;;;;;;2.88;0.70;;;;;;;;;;5071309;28;20082;-75
2022/10/31 13:03:40;;;;;;;3.40;0.70;;;;;;;;;;5070733;28;20062;-75
2022/10/31 13:06:09;;;;;;;4.37;0.77;;;;;;;;;;5075104;28;20510;-75
2022/10/31 13:08:40;;;;;;;2.45;0.60;;;;;;;;;;5075160;28;20052;-75
2022/10/31 13:11:12;;;;;;;5.57;1.10;;;;;;;;;;5075191;28;20127;-75
2022/10/31 13:13:57;;;;;;;4.60;0.90;;;;;;;;;;5075159;28;20049;-75
2022/10/31 13:16:32;;;;;;;3.78;0.82;;;;;;;;;;5075098;28;20139;-75
2022/10/31 13:18:59;;;;;;;5.25;0.80;;;;;;;;;;5075127;28;20094;-75
2022/10/31 13:21:46;;;;;;;4.45;1.13;;;;;;;;;;5074964;28;20049;-75
2022/10/31 13:24:16;;;;;;;4.43;0.80;;;;;;;;;;5074696;28;20054;-75
2022/10/31 13:26:48;;;;;;;3.70;0.80;;;;;;;;;;5074677;28;20412;-75
2022/10/31 13:29:17;;;;;;;3.97;0.75;;;;;;;;;;5074565;28;20495;-75
2022/10/31 13:31:44;;;;;;;2.53;0.60;;;;;;;;;;5074801;28;20407;-75
2022/10/31 13:34:24;;;;;;;4.07;0.87;;;;;;;;;;5074618;28;20411;-75
2022/10/31 13:36:50;;;;;;;6.18;1.00;;;;;;;;;;5074642;28;20051;-75
2022/10/31 13:39:22;;;;;;;2.28;0.90;;;;;;;;;;5074616;28;20044;-75
2022/10/31 13:41:58;;;;;;;4.00;0.77;;;;;;;;;;5074763;28;20052;-75
2022/10/31 13:44:25;;;;;;;7.53;1.08;;;;;;;;;;5074652;28;20425;-75
2022/10/31 13:46:53;;;;;;;2.08;0.50;;;;;;;;;;5074183;28;20061;-75
2022/10/31 13:49:19;;;;;;;;;;;;;;;;;;5074758;28;20415;-74
2022/10/31 13:51:46;;;;;;;3.75;0.80;;;;;;;;;;5068654;28;19938;-75
2022/10/31 13:54:42;;;;;;;3.22;0.95;;;;;;;;;;5065070;28;20056;-75
2022/10/31 13:57:14;;;;;;;4.70;0.75;;;;;;;;;;5036892;28;20049;-75
2022/10/31 13:59:46;;;;;;;4.38;1.02;;;;;;;;;;5073909;28;20040;-75
2022/10/31 14:02:14;;;;;;;4.78;0.70;;;;;;;;;;5066507;28;20496;-75
2022/10/31 14:04:43;;;;;;;2.72;0.88;;;;;;;;;;5054982;28;20511;-75
2022/10/31 14:07:10;;;;;;;3.88;0.75;;;;;;;;;;5070272;28;20487;-75
2022/10/31 14:09:49;;;;;;;4.55;0.90;;;;;;;;;;5067824;28;20393;-75
2022/10/31 14:12:25;;;;;;;4.47;1.25;;;;;;;;;;5057201;28;20045;-74
2022/10/31 14:14:55;;;;;;;7.40;1.27;;;;;;;;;;5056095;28;20098;-74
2022/10/31 14:17:26;;;;;;;4.03;1.25;;;;;;;;;;5073480;28;20050;-74
2022/10/31 14:19:59;;;;;;;5.10;0.82;;;;;;;;;;5073187;28;20040;-75
2022/10/31 14:22:39;;;;;;;2.22;0.88;;;;;;;;;;5054635;28;20393;-75
2022/10/31 14:25:44;;;;;;;4.75;0.90;;;;;;;;;;5072243;28;20053;-74
2022/10/31 14:28:19;;;;;;;3.45;0.73;;;;;;;;;;5030976;28;20534;-74
2022/10/31 14:30:56;;;;;;;5.15;1.08;;;;;;;;;;5063659;28;20052;-74
2022/10/31 14:33:25;;;;;;;3.28;0.80;;;;;;;;;;5069043;28;20484;-74
2022/10/31 14:36:10;;;;;;;4.97;0.68;;;;;;;;;;5063278;28;20056;-74
2022/10/31 14:39:01;;;;;;;5.18;1.08;;;;;;;;;;5070214;28;20040;-74
2022/10/31 14:41:30;;;;;;;5.65;1.02;;;;;;;;;;5072954;28;20048;-74
2022/10/31 14:44:01;;;;;;;4.22;0.85;;;;;;;;;;5073194;28;20071;-74
2022/10/31 14:46:49;;;;;;;4.47;1.30;;;;;;;;;;5052803;28;20068;-74
2022/10/31 14:49:22;;;;;;;5.15;1.00;;;;;;;;;;5052843;28;20047;-75
2022/10/31 14:51:50;;;;;;;6.80;1.30;;;;;;;;;;5052770;28;20056;-75
2022/10/31 14:54:23;;;;;;;3.63;1.10;;;;;;;;;;5058702;28;20053;-77